ADDS METAR Data INFO
IDs: Format: Raw Decoded Include TAF

Data at: 0459 UTC 25 May 2018

KHSG 250435Z AUTO 27008KT 10SM CLR 14/08 A3006 RMK AO2 T01370078
KHSG 250415Z AUTO 26009KT 10SM CLR 14/08 A3006 RMK AO2 T01360082
KHSG 250355Z AUTO 26009KT 10SM CLR 14/08 A3005 RMK AO2 T01410082
KHSG 250335Z AUTO 27012G17KT 10SM CLR 15/09 A3004 RMK AO2 T01470086
KHSG 250315Z AUTO 27015G18KT 10SM CLR 15/09 A3004 RMK AO2 T01480092
KHSG 250255Z AUTO 22004KT 10SM CLR 15/10 A3004 RMK AO2 T01460095
KHSG 250235Z AUTO 24004KT 10SM CLR 18/10 A3003 RMK AO2 T01750097
KHSG 250215Z AUTO 32005KT 10SM CLR 17/11 A3003 RMK AO2 T01740106
KHSG 250200Z AUTO 33004KT 10SM CLR 18/11 A3003 RMK AO2 T01770113
KHSG 250135Z AUTO 33005KT 10SM CLR 21/11 A3002 RMK AO2 LTG DSNT NW T02110107
KHSG 250115Z AUTO 33004KT 10SM CLR 23/10 A3001 RMK AO2 T02250101
KHSG 250055Z AUTO 33005KT 10SM CLR 23/09 A3001 RMK AO2 T02310088
KHSG 250035Z AUTO 32003KT 10SM SCT120 23/07 A3001 RMK AO2 T02330067
KHSG 250015Z AUTO 00000KT 10SM SCT120 25/07 A3001 RMK AO2 T02460071
KHSG 242355Z AUTO 00000KT 10SM CLR 24/06 A3001 RMK AO2 T02400060 10247 20212
KHSG 242335Z AUTO 31004KT 10SM SCT080 SCT100 24/08 A3001 RMK AO2 T02410077
KHSG 242315Z AUTO 31005KT 10SM SCT080 SCT100 24/08 A3001 RMK AO2 LTG DSNT W T02360076
KHSG 242255Z AUTO 36006KT 10SM CLR 23/07 A3001 RMK AO2 T02290070
KHSG 242235Z AUTO 32006KT 10SM SCT110 25/09 A3001 RMK AO2 LTG DSNT NW T02450086
KHSG 242215Z AUTO 31007KT 10SM SCT110 24/08 A3001 RMK AO2 T02370083
KHSG 242155Z AUTO 33006KT 10SM SCT110 24/08 A3002 RMK AO2 LTG DSNT NW T02440084
KHSG 242135Z AUTO 01004KT 10SM SCT075 BKN110 23/09 A3002 RMK AO2 LTG DSNT NW T02340088
KHSG 242115Z AUTO 33005KT 10SM SCT075 OVC110 24/10 A3002 RMK AO2 T02380104
KHSG 242055Z AUTO 00000KT 10SM SCT070 SCT075 OVC120 25/07 A3002 RMK AO2 LTG DSNT NW T02460074
KHSG 242035Z AUTO 09003KT 10SM BKN070 BKN080 BKN110 24/09 A3002 RMK AO2 T02420093
KHSG 242015Z AUTO 04004KT 10SM CLR 24/10 A3002 RMK AO2 T02390101
KHSG 241955Z AUTO 11005KT 10SM CLR 23/09 A3002 RMK AO2 LTG DSNT NW T02320091
KHSG 241935Z AUTO 00000KT 10SM CLR 23/09 A3002 RMK AO2 T02280087
KHSG 241915Z AUTO 10005KT 10SM CLR 23/09 A3002 RMK AO2 T02300094
KHSG 241855Z AUTO 06006KT 260V080 10SM CLR 23/09 A3003 RMK AO2 T02250094
KHSG 241835Z AUTO 02004KT 10SM CLR 22/09 A3003 RMK AO2 T02190089
KHSG 241815Z AUTO 08004KT 10SM CLR 22/10 A3004 RMK AO2 T02150096
KHSG 241755Z AUTO 06003KT 10SM CLR 21/10 A3004 RMK AO2 T02120099 10212 20079
KHSG 241735Z AUTO 05006KT 10SM CLR 21/11 A3004 RMK AO2 T02100107
KHSG 241715Z AUTO 04003KT 10SM CLR 20/11 A3004 RMK AO2 T02020107
KHSG 241655Z AUTO 11004KT 10SM CLR 20/09 A3004 RMK AO2 T01970090
KHSG 241635Z AUTO 03003KT 10SM CLR 19/08 A3003 RMK AO2 T01900075
KHSG 241615Z AUTO 00000KT 10SM CLR 19/09 A3003 RMK AO2 T01860093
KHSG 241555Z AUTO 06004KT 10SM CLR 18/09 A3003 RMK AO2 T01800093
KHSG 241535Z AUTO 00000KT 10SM CLR 18/10 A3003 RMK AO2 T01750097
KHSG 241515Z AUTO 00000KT 10SM CLR 17/10 A3003 RMK AO2 T01700095
KHSG 241455Z AUTO 00000KT 10SM CLR 17/08 A3003 RMK AO2 T01650081
KHSG 241435Z AUTO 27005KT 10SM CLR 15/07 A3003 RMK AO2 T01540074
KHSG 241355Z AUTO 25004KT 10SM CLR 13/09 A3003 RMK AO2 T01340088
KHSG 241335Z AUTO 22005KT 10SM CLR 13/09 A3003 RMK AO2 T01270088
KHSG 241315Z AUTO 21003KT 10SM SCT120 12/10 A3003 RMK AO2 T01230098
KHSG 241255Z AUTO 00000KT 10SM BKN120 10/08 A3003 RMK AO2 T00980082
KHSG 241235Z AUTO 17006KT 10SM SCT120 08/08 A3003 RMK AO2 T00840075
KHSG 241215Z AUTO 26003KT 10SM CLR 09/07 A3003 RMK AO2 T00850067
KHSG 241155Z AUTO 28007KT 10SM SCT120 08/07 A3002 RMK AO2 T00830070 10123 20068
KHSG 241135Z AUTO 28007KT 10SM CLR 07/06 A3002 RMK AO2 T00690060
KHSG 241115Z AUTO 26003KT 10SM SCT120 09/08 A3002 RMK AO2 T00880076
KHSG 241055Z AUTO 25003KT 10SM OVC120 10/08 A3001 RMK AO2 T00970079
KHSG 241035Z AUTO 27004KT 10SM BKN120 08/07 A3000 RMK AO2 T00790069
KHSG 241015Z AUTO 27004KT 10SM CLR 09/07 A2999 RMK AO2 T00870074
KHSG 240955Z AUTO 26005KT 10SM SCT120 09/08 A2999 RMK AO2 T00890079
KHSG 240935Z AUTO 26006KT 10SM SCT120 08/07 A2999 RMK AO2 T00770067
KHSG 240915Z AUTO 26004KT 10SM SCT120 09/08 A2999 RMK AO2 T00900075
KHSG 240855Z AUTO 28006KT 10SM CLR 08/07 A2999 RMK AO2 T00830073
KHSG 240835Z AUTO 27007KT 10SM SCT110 10/08 A2999 RMK AO2 T00980082
KHSG 240815Z AUTO 33004KT 10SM BKN110 11/08 A2998 RMK AO2 T01050084
KHSG 240755Z AUTO 33003KT 10SM OVC110 11/09 A2997 RMK AO2 T01090087
KHSG 240735Z AUTO 36005KT 10SM OVC110 10/08 A2997 RMK AO2 T01040084
KHSG 240715Z AUTO 02003KT 10SM OVC110 11/09 A2997 RMK AO2 T01120086
KHSG 240655Z AUTO 01004KT 10SM SCT090 OVC110 12/09 A2997 RMK AO2 T01160093 402150096
KHSG 240635Z AUTO 36006KT 10SM OVC100 12/10 A2996 RMK AO2 T01190095
KHSG 240615Z AUTO 34007KT 10SM BKN100 12/10 A2996 RMK AO2 T01170099
KHSG 240555Z AUTO 03004KT 10SM SCT075 OVC100 12/10 A2996 RMK AO2 T01220103 10182 20119
KHSG 240535Z AUTO 02006G14KT 10SM -RA BKN065 OVC080 13/11 A2995 RMK AO2 T01280105
KHSG 240515Z AUTO 36004KT 10SM -RA BKN075 OVC090 14/09 A2995 RMK AO2 T01410088
KHSG 240455Z AUTO 01006KT 10SM SCT075 OVC090 14/10 A2995 RMK AO2 T01380097
KHSG 240435Z AUTO 02006KT 10SM SCT075 SCT090 BKN110 13/08 A2995 RMK AO2 T01320078
KHSG 240415Z AUTO 34006KT 10SM CLR 12/08 A2995 RMK AO2 T01210082
KHSG 240355Z AUTO 18007KT 10SM SCT110 14/08 A2993 RMK AO2 T01410081
KHSG 240335Z AUTO 18007KT 10SM OVC120 15/07 A2993 RMK AO2 T01480070
KHSG 240315Z AUTO 22009KT 10SM OVC120 15/06 A2993 RMK AO2 T01520056
KHSG 240255Z AUTO 25009KT 10SM BKN110 15/07 A2993 RMK AO2 T01480070
KHSG 240235Z AUTO 24003KT 10SM BKN110 15/10 A2993 RMK AO2 T01460096
KHSG 240220Z AUTO 24004KT 10SM BKN110 15/09 A2993 RMK AO2 T01450094
KHSG 240155Z AUTO 26007KT 10SM CLR 15/10 A2992 RMK AO2 LTG DSNT W T01470100
KHSG 240135Z AUTO 26005KT 10SM CLR 14/10 A2991 RMK AO2 T01430095
KHSG 240115Z AUTO 25004KT 10SM CLR 15/10 A2990 RMK AO2 LTG DSNT NE AND NW T01530104
KHSG 240055Z AUTO 26005KT 10SM SCT100 17/08 A2990 RMK AO2 LTG DSNT E T01710079
KHSG 240035Z AUTO 25003KT 10SM SCT110 18/08 A2991 RMK AO2 T01780075
KHSG 240015Z AUTO 25004KT 10SM CLR 18/07 A2991 RMK AO2 T01760072
KHSG 232355Z AUTO 27011KT 10SM CLR 18/07 A2990 RMK AO2 T01840070 10215 20171
KHSG 232335Z AUTO 26008KT 10SM SCT120 19/08 A2990 RMK AO2 LTG DSNT N SE AND W T01900076
KHSG 232315Z AUTO 24010G14KT 10SM SCT120 21/06 A2990 RMK AO2 LTG DSNT N T02070056
KHSG 232255Z AUTO 28010KT 10SM CLR 20/07 A2990 RMK AO2 T02010069
KHSG 232235Z AUTO 21007KT 10SM CLR 21/07 A2989 RMK AO2 LTG DSNT E T02050072
KHSG 232215Z AUTO 21008KT 10SM SCT100 SCT120 20/07 A2989 RMK AO2 LTG DSNT ALQS T01970072
KHSG 232155Z AUTO 22009KT 10SM SCT065 BKN090 OVC120 18/08 A2990 RMK AO2 LTG DSNT N SE AND NW T01780076
KHSG 232135Z AUTO 26010G16KT 10SM VCTS SCT065 BKN090 OVC100 18/08 A2990 RMK AO2 LTG DSNT N AND S T01760082
KHSG 232115Z AUTO 27012KT 10SM SCT065 BKN100 BKN120 19/08 A2989 RMK AO2 LTG DSNT ALQS T01870083
KHSG 232055Z AUTO 28012G25KT 10SM VCTS BKN060 BKN090 19/08 A2988 RMK AO2 LTG DSNT N S AND SW T01930079
KHSG 232035Z AUTO 21012G18KT 10SM BKN060 BKN080 OVC120 21/09 A2988 RMK AO2 LTG DSNT N SE AND S T02050087
KHSG 232015Z AUTO 18014G18KT 10SM VCTS SCT070 BKN120 21/09 A2989 RMK AO2 LTG DSNT S THRU N T02070092
KHSG 231955Z AUTO 17013G18KT 10SM TS SCT120 20/10 A2989 RMK AO2 LTG DSNT N SE AND NW T02010101
KHSG 231935Z AUTO 18011G17KT 10SM VCTS SCT100 BKN120 21/10 A2989 RMK AO2 LTG DSNT ALQS T02090102
KHSG 231915Z AUTO 19015G22KT 10SM BKN100 BKN120 20/10 A2990 RMK AO2 LTG DSNT W AND NW T02010102
KHSG 231855Z AUTO 17012G19KT 10SM SCT100 BKN120 19/10 A2991 RMK AO2 LTG DSNT SW T01920101
KHSG 231835Z AUTO 16014G20KT 10SM SCT120 19/10 A2992 RMK AO2 LTG DSNT S T01890099
KHSG 231815Z AUTO 17012G17KT 10SM CLR 19/10 A2992 RMK AO2 T01870102
KHSG 231755Z AUTO 17007G14KT 10SM CLR 18/10 A2993 RMK AO2 LTG DSNT S T01810100 10181 20097
KHSG 231735Z AUTO 17011G15KT 10SM SCT031 BKN090 17/10 A2993 RMK AO2 LTG DSNT SW T01740098
KHSG 231715Z AUTO 17011G21KT 10SM SCT027 BKN090 17/10 A2993 RMK AO2 LTG DSNT S T01690097